sensor_id;sensor_type;location;lat;lon;timestamp;temperature;humidity
5962;DHT22;3007;50.770;0.250;2023-07-20T00:02:01;16.70;99.90
5962;DHT22;3007;50.770;0.250;2023-07-20T00:04:30;16.70;99.90
5962;DHT22;3007;50.770;0.250;2023-07-20T00:06:57;16.70;99.90
5962;DHT22;3007;50.770;0.250;2023-07-20T00:09:25;16.60;99.90
5962;DHT22;3007;50.770;0.250;2023-07-20T00:11:53;16.60;99.90
5962;DHT22;3007;50.770;0.250;2023-07-20T00:14:20;16.60;99.90
5962;DHT22;3007;50.770;0.250;2023-07-20T00:16:50;16.50;99.90
5962;DHT22;3007;50.770;0.250;2023-07-20T00:19:21;16.60;99.90
5962;DHT22;3007;50.770;0.250;2023-07-20T00:21:48;16.60;99.90
5962;DHT22;3007;50.770;0.250;2023-07-20T00:24:15;16.50;99.90
5962;DHT22;3007;50.770;0.250;2023-07-20T00:26:46;16.50;99.90
5962;DHT22;3007;50.770;0.250;2023-07-20T00:29:13;16.60;99.90
5962;DHT22;3007;50.770;0.250;2023-07-20T00:31:40;16.50;99.90
5962;DHT22;3007;50.770;0.250;2023-07-20T00:34:07;16.50;99.90
5962;DHT22;3007;50.770;0.250;2023-07-20T00:36:34;16.50;99.90
5962;DHT22;3007;50.770;0.250;2023-07-20T00:39:01;16.40;99.90
5962;DHT22;3007;50.770;0.250;2023-07-20T00:41:28;16.40;99.90
5962;DHT22;3007;50.770;0.250;2023-07-20T00:43:56;16.40;99.90
5962;DHT22;3007;50.770;0.250;2023-07-20T00:46:23;16.30;99.90
5962;DHT22;3007;50.770;0.250;2023-07-20T00:48:51;16.30;99.90
5962;DHT22;3007;50.770;0.250;2023-07-20T00:51:19;16.20;99.90
5962;DHT22;3007;50.770;0.250;2023-07-20T00:53:46;16.20;99.90
5962;DHT22;3007;50.770;0.250;2023-07-20T00:56:13;16.20;99.90
5962;DHT22;3007;50.770;0.250;2023-07-20T00:58:41;16.10;99.90
5962;DHT22;3007;50.770;0.250;2023-07-20T01:01:09;16.10;99.90
5962;DHT22;3007;50.770;0.250;2023-07-20T01:03:36;16.20;99.90
5962;DHT22;3007;50.770;0.250;2023-07-20T01:06:11;16.00;99.90
5962;DHT22;3007;50.770;0.250;2023-07-20T01:08:46;16.00;99.90
5962;DHT22;3007;50.770;0.250;2023-07-20T01:11:18;16.00;99.90
5962;DHT22;3007;50.770;0.250;2023-07-20T01:13:46;16.00;99.90
5962;DHT22;3007;50.770;0.250;2023-07-20T01:16:14;16.00;99.90
5962;DHT22;3007;50.770;0.250;2023-07-20T01:18:41;16.00;99.90
5962;DHT22;3007;50.770;0.250;2023-07-20T01:21:18;16.00;99.90
5962;DHT22;3007;50.770;0.250;2023-07-20T01:24:05;16.00;99.90
5962;DHT22;3007;50.770;0.250;2023-07-20T01:26:54;16.00;99.90
5962;DHT22;3007;50.770;0.250;2023-07-20T01:29:43;16.00;99.90
5962;DHT22;3007;50.770;0.250;2023-07-20T01:32:17;16.00;99.90
5962;DHT22;3007;50.770;0.250;2023-07-20T01:34:44;15.90;99.90
5962;DHT22;3007;50.770;0.250;2023-07-20T01:37:12;15.90;99.90
5962;DHT22;3007;50.770;0.250;2023-07-20T01:39:40;15.90;99.90
5962;DHT22;3007;50.770;0.250;2023-07-20T01:42:07;15.80;99.90
5962;DHT22;3007;50.770;0.250;2023-07-20T01:44:36;15.80;99.90
5962;DHT22;3007;50.770;0.250;2023-07-20T01:47:04;15.70;99.90
5962;DHT22;3007;50.770;0.250;2023-07-20T01:49:32;15.70;99.90
5962;DHT22;3007;50.770;0.250;2023-07-20T01:51:59;15.70;99.90
5962;DHT22;3007;50.770;0.250;2023-07-20T01:54:28;15.70;99.90
5962;DHT22;3007;50.770;0.250;2023-07-20T01:56:55;15.60;99.90
5962;DHT22;3007;50.770;0.250;2023-07-20T01:59:21;15.60;99.90
5962;DHT22;3007;50.770;0.250;2023-07-20T02:01:48;15.60;99.90
5962;DHT22;3007;50.770;0.250;2023-07-20T02:04:15;15.50;99.90
5962;DHT22;3007;50.770;0.250;2023-07-20T02:06:43;15.40;99.90
5962;DHT22;3007;50.770;0.250;2023-07-20T02:09:10;15.40;99.90
5962;DHT22;3007;50.770;0.250;2023-07-20T02:11:37;15.40;99.90
5962;DHT22;3007;50.770;0.250;2023-07-20T02:14:04;15.30;99.90
5962;DHT22;3007;50.770;0.250;2023-07-20T02:16:31;15.30;99.90
5962;DHT22;3007;50.770;0.250;2023-07-20T02:18:58;15.20;99.90
5962;DHT22;3007;50.770;0.250;2023-07-20T02:21:24;15.20;99.90
5962;DHT22;3007;50.770;0.250;2023-07-20T02:23:53;15.20;99.90
5962;DHT22;3007;50.770;0.250;2023-07-20T02:26:19;15.20;99.90
5962;DHT22;3007;50.770;0.250;2023-07-20T02:28:46;15.10;99.90
5962;DHT22;3007;50.770;0.250;2023-07-20T02:31:13;15.10;99.90
5962;DHT22;3007;50.770;0.250;2023-07-20T02:33:40;15.10;99.90
5962;DHT22;3007;50.770;0.250;2023-07-20T02:36:07;15.00;99.90
5962;DHT22;3007;50.770;0.250;2023-07-20T02:38:39;15.00;99.90
5962;DHT22;3007;50.770;0.250;2023-07-20T02:41:08;15.00;99.90
5962;DHT22;3007;50.770;0.250;2023-07-20T02:43:35;14.90;99.90
5962;DHT22;3007;50.770;0.250;2023-07-20T02:46:02;14.90;99.90
5962;DHT22;3007;50.770;0.250;2023-07-20T02:48:28;15.00;99.90
5962;DHT22;3007;50.770;0.250;2023-07-20T02:50:55;14.90;99.90
5962;DHT22;3007;50.770;0.250;2023-07-20T02:53:22;14.90;99.90
5962;DHT22;3007;50.770;0.250;2023-07-20T02:55:49;14.90;99.90
5962;DHT22;3007;50.770;0.250;2023-07-20T02:58:17;14.90;99.90
5962;DHT22;3007;50.770;0.250;2023-07-20T03:00:44;14.90;99.90
5962;DHT22;3007;50.770;0.250;2023-07-20T03:03:11;14.80;99.90
5962;DHT22;3007;50.770;0.250;2023-07-20T03:05:40;14.80;99.90
5962;DHT22;3007;50.770;0.250;2023-07-20T03:08:07;14.80;99.90
5962;DHT22;3007;50.770;0.250;2023-07-20T03:10:38;14.80;99.90
5962;DHT22;3007;50.770;0.250;2023-07-20T03:13:08;14.80;99.90
5962;DHT22;3007;50.770;0.250;2023-07-20T03:15:36;14.70;99.90
5962;DHT22;3007;50.770;0.250;2023-07-20T03:18:03;14.70;99.90
5962;DHT22;3007;50.770;0.250;2023-07-20T03:20:31;14.80;99.90
5962;DHT22;3007;50.770;0.250;2023-07-20T03:22:58;14.80;99.90
5962;DHT22;3007;50.770;0.250;2023-07-20T03:25:25;14.70;99.90
5962;DHT22;3007;50.770;0.250;2023-07-20T03:27:52;14.70;99.90
5962;DHT22;3007;50.770;0.250;2023-07-20T03:30:19;14.80;99.90
5962;DHT22;3007;50.770;0.250;2023-07-20T03:32:47;14.80;99.90
5962;DHT22;3007;50.770;0.250;2023-07-20T03:35:14;14.80;99.90
5962;DHT22;3007;50.770;0.250;2023-07-20T03:37:42;14.70;99.90
5962;DHT22;3007;50.770;0.250;2023-07-20T03:40:09;14.80;99.90
5962;DHT22;3007;50.770;0.250;2023-07-20T03:42:36;14.70;99.90
5962;DHT22;3007;50.770;0.250;2023-07-20T03:45:05;14.80;99.90
5962;DHT22;3007;50.770;0.250;2023-07-20T03:47:32;14.70;99.90
5962;DHT22;3007;50.770;0.250;2023-07-20T03:50:00;14.70;99.90
5962;DHT22;3007;50.770;0.250;2023-07-20T03:52:30;14.80;99.90
5962;DHT22;3007;50.770;0.250;2023-07-20T03:54:57;14.70;99.90
5962;DHT22;3007;50.770;0.250;2023-07-20T03:57:23;14.80;99.90
5962;DHT22;3007;50.770;0.250;2023-07-20T03:59:50;14.80;99.90
5962;DHT22;3007;50.770;0.250;2023-07-20T04:02:17;14.80;99.90
5962;DHT22;3007;50.770;0.250;2023-07-20T04:04:44;14.80;99.90
5962;DHT22;3007;50.770;0.250;2023-07-20T04:07:14;14.80;99.90
5962;DHT22;3007;50.770;0.250;2023-07-20T04:09:41;14.80;99.90
5962;DHT22;3007;50.770;0.250;2023-07-20T04:12:08;14.80;99.90
5962;DHT22;3007;50.770;0.250;2023-07-20T04:14:35;14.80;99.90
5962;DHT22;3007;50.770;0.250;2023-07-20T04:17:02;14.80;99.90
5962;DHT22;3007;50.770;0.250;2023-07-20T04:19:29;14.90;99.90
5962;DHT22;3007;50.770;0.250;2023-07-20T04:21:56;14.90;99.90
5962;DHT22;3007;50.770;0.250;2023-07-20T04:24:24;14.90;99.90
5962;DHT22;3007;50.770;0.250;2023-07-20T04:26:51;14.90;99.90
5962;DHT22;3007;50.770;0.250;2023-07-20T04:29:18;14.90;99.90
5962;DHT22;3007;50.770;0.250;2023-07-20T04:31:44;14.90;99.90
5962;DHT22;3007;50.770;0.250;2023-07-20T04:34:11;15.00;99.90
5962;DHT22;3007;50.770;0.250;2023-07-20T04:36:38;15.10;99.90
5962;DHT22;3007;50.770;0.250;2023-07-20T04:39:05;15.10;99.90
5962;DHT22;3007;50.770;0.250;2023-07-20T04:41:35;15.20;99.90
5962;DHT22;3007;50.770;0.250;2023-07-20T04:44:02;15.40;99.90
5962;DHT22;3007;50.770;0.250;2023-07-20T04:46:28;15.70;99.90
5962;DHT22;3007;50.770;0.250;2023-07-20T04:48:55;16.20;99.90
5962;DHT22;3007;50.770;0.250;2023-07-20T04:51:22;16.60;99.90
5962;DHT22;3007;50.770;0.250;2023-07-20T04:53:49;17.10;99.90
5962;DHT22;3007;50.770;0.250;2023-07-20T04:56:17;17.40;99.90
5962;DHT22;3007;50.770;0.250;2023-07-20T04:58:45;17.80;99.90
5962;DHT22;3007;50.770;0.250;2023-07-20T05:01:12;18.10;99.90
5962;DHT22;3007;50.770;0.250;2023-07-20T05:03:39;18.60;99.90
5962;DHT22;3007;50.770;0.250;2023-07-20T05:06:06;18.90;99.90
5962;DHT22;3007;50.770;0.250;2023-07-20T05:08:32;19.30;99.90
5962;DHT22;3007;50.770;0.250;2023-07-20T05:11:00;19.70;99.90
5962;DHT22;3007;50.770;0.250;2023-07-20T05:13:27;20.10;99.90
5962;DHT22;3007;50.770;0.250;2023-07-20T05:15:55;20.40;99.90
5962;DHT22;3007;50.770;0.250;2023-07-20T05:18:23;20.70;99.90
5962;DHT22;3007;50.770;0.250;2023-07-20T05:20:50;21.10;99.90
5962;DHT22;3007;50.770;0.250;2023-07-20T05:23:18;21.40;99.90
5962;DHT22;3007;50.770;0.250;2023-07-20T05:25:45;21.80;99.90
5962;DHT22;3007;50.770;0.250;2023-07-20T05:28:12;22.10;99.90
5962;DHT22;3007;50.770;0.250;2023-07-20T05:30:40;22.30;99.90
5962;DHT22;3007;50.770;0.250;2023-07-20T05:33:08;22.50;99.90
5962;DHT22;3007;50.770;0.250;2023-07-20T05:35:36;22.80;99.90
5962;DHT22;3007;50.770;0.250;2023-07-20T05:38:03;23.10;99.90
5962;DHT22;3007;50.770;0.250;2023-07-20T05:40:32;23.30;99.90
5962;DHT22;3007;50.770;0.250;2023-07-20T05:42:58;23.60;99.90
5962;DHT22;3007;50.770;0.250;2023-07-20T05:45:26;23.80;99.90
5962;DHT22;3007;50.770;0.250;2023-07-20T05:47:53;24.00;99.90
5962;DHT22;3007;50.770;0.250;2023-07-20T05:50:21;23.70;99.90
5962;DHT22;3007;50.770;0.250;2023-07-20T05:52:48;23.90;99.90
5962;DHT22;3007;50.770;0.250;2023-07-20T05:55:15;24.10;99.90
5962;DHT22;3007;50.770;0.250;2023-07-20T05:57:41;24.40;99.90
5962;DHT22;3007;50.770;0.250;2023-07-20T06:00:10;24.60;99.90
5962;DHT22;3007;50.770;0.250;2023-07-20T06:02:38;24.10;94.60
5962;DHT22;3007;50.770;0.250;2023-07-20T06:05:05;23.40;99.90
5962;DHT22;3007;50.770;0.250;2023-07-20T06:07:36;23.30;99.90
5962;DHT22;3007;50.770;0.250;2023-07-20T06:10:03;23.60;99.90
5962;DHT22;3007;50.770;0.250;2023-07-20T06:12:31;24.10;99.90
5962;DHT22;3007;50.770;0.250;2023-07-20T06:15:01;24.50;99.90
5962;DHT22;3007;50.770;0.250;2023-07-20T06:17:31;24.70;99.90
5962;DHT22;3007;50.770;0.250;2023-07-20T06:19:58;24.80;40.30
5962;DHT22;3007;50.770;0.250;2023-07-20T06:22:25;25.40;30.00
5962;DHT22;3007;50.770;0.250;2023-07-20T06:24:53;25.70;10.90
5962;DHT22;3007;50.770;0.250;2023-07-20T06:27:20;26.10;1.00
5962;DHT22;3007;50.770;0.250;2023-07-20T06:29:49;26.50;1.00
5962;DHT22;3007;50.770;0.250;2023-07-20T06:32:16;26.70;1.00
5962;DHT22;3007;50.770;0.250;2023-07-20T06:34:42;26.90;1.00
5962;DHT22;3007;50.770;0.250;2023-07-20T06:37:09;26.70;1.00
5962;DHT22;3007;50.770;0.250;2023-07-20T06:39:36;26.40;1.00
5962;DHT22;3007;50.770;0.250;2023-07-20T06:42:05;26.30;1.00
5962;DHT22;3007;50.770;0.250;2023-07-20T06:44:32;26.20;1.00
5962;DHT22;3007;50.770;0.250;2023-07-20T06:46:59;26.00;1.00
5962;DHT22;3007;50.770;0.250;2023-07-20T06:49:27;25.70;1.00
5962;DHT22;3007;50.770;0.250;2023-07-20T06:51:54;25.10;1.00
5962;DHT22;3007;50.770;0.250;2023-07-20T06:54:21;24.60;1.00
5962;DHT22;3007;50.770;0.250;2023-07-20T06:56:48;24.20;1.00
5962;DHT22;3007;50.770;0.250;2023-07-20T06:59:16;23.60;1.00
5962;DHT22;3007;50.770;0.250;2023-07-20T07:01:43;23.40;1.00
5962;DHT22;3007;50.770;0.250;2023-07-20T07:04:10;24.00;66.00
5962;DHT22;3007;50.770;0.250;2023-07-20T07:06:37;24.70;55.80
5962;DHT22;3007;50.770;0.250;2023-07-20T07:09:04;25.30;1.00
5962;DHT22;3007;50.770;0.250;2023-07-20T07:11:31;25.70;1.00
5962;DHT22;3007;50.770;0.250;2023-07-20T07:13:58;26.10;1.00
5962;DHT22;3007;50.770;0.250;2023-07-20T07:16:26;26.60;1.00
5962;DHT22;3007;50.770;0.250;2023-07-20T07:18:53;26.90;1.00
5962;DHT22;3007;50.770;0.250;2023-07-20T07:21:20;27.10;1.00
5962;DHT22;3007;50.770;0.250;2023-07-20T07:23:47;27.30;1.00
5962;DHT22;3007;50.770;0.250;2023-07-20T07:26:15;27.40;1.00
5962;DHT22;3007;50.770;0.250;2023-07-20T07:28:42;27.60;1.00
5962;DHT22;3007;50.770;0.250;2023-07-20T07:31:09;27.80;1.00
5962;DHT22;3007;50.770;0.250;2023-07-20T07:33:37;28.00;98.70
5962;DHT22;3007;50.770;0.250;2023-07-20T07:36:04;28.20;99.90
5962;DHT22;3007;50.770;0.250;2023-07-20T07:38:31;28.30;99.90
5962;DHT22;3007;50.770;0.250;2023-07-20T07:40:59;28.40;99.90
5962;DHT22;3007;50.770;0.250;2023-07-20T07:43:26;28.50;99.90
5962;DHT22;3007;50.770;0.250;2023-07-20T07:45:54;28.50;99.90
5962;DHT22;3007;50.770;0.250;2023-07-20T07:48:21;28.60;99.90
5962;DHT22;3007;50.770;0.250;2023-07-20T07:50:53;28.70;99.90
5962;DHT22;3007;50.770;0.250;2023-07-20T07:53:20;28.60;99.90
5962;DHT22;3007;50.770;0.250;2023-07-20T07:55:47;28.70;99.90
5962;DHT22;3007;50.770;0.250;2023-07-20T07:58:14;28.70;99.90
5962;DHT22;3007;50.770;0.250;2023-07-20T08:00:41;28.80;99.90
5962;DHT22;3007;50.770;0.250;2023-07-20T08:03:08;28.90;99.90
5962;DHT22;3007;50.770;0.250;2023-07-20T08:05:35;28.90;99.90
5962;DHT22;3007;50.770;0.250;2023-07-20T08:08:04;29.10;99.90
5962;DHT22;3007;50.770;0.250;2023-07-20T08:10:31;29.20;99.90
5962;DHT22;3007;50.770;0.250;2023-07-20T08:12:58;29.10;99.90
5962;DHT22;3007;50.770;0.250;2023-07-20T08:15:25;29.10;99.90
5962;DHT22;3007;50.770;0.250;2023-07-20T08:17:52;29.10;99.90
5962;DHT22;3007;50.770;0.250;2023-07-20T08:20:19;29.20;99.90
5962;DHT22;3007;50.770;0.250;2023-07-20T08:22:51;29.40;99.90
5962;DHT22;3007;50.770;0.250;2023-07-20T08:25:20;28.90;99.90
5962;DHT22;3007;50.770;0.250;2023-07-20T08:27:47;28.70;99.90
5962;DHT22;3007;50.770;0.250;2023-07-20T08:30:15;28.70;99.90
5962;DHT22;3007;50.770;0.250;2023-07-20T08:32:42;29.00;99.90
5962;DHT22;3007;50.770;0.250;2023-07-20T08:35:09;29.30;99.90
5962;DHT22;3007;50.770;0.250;2023-07-20T08:37:36;29.50;99.90
5962;DHT22;3007;50.770;0.250;2023-07-20T08:40:04;29.50;99.90
5962;DHT22;3007;50.770;0.250;2023-07-20T08:42:36;29.70;99.90
5962;DHT22;3007;50.770;0.250;2023-07-20T08:45:06;29.70;99.90
5962;DHT22;3007;50.770;0.250;2023-07-20T08:47:33;29.30;99.90
5962;DHT22;3007;50.770;0.250;2023-07-20T08:50:00;28.90;99.90
5962;DHT22;3007;50.770;0.250;2023-07-20T08:52:33;28.50;99.90
5962;DHT22;3007;50.770;0.250;2023-07-20T08:55:01;27.90;99.90
5962;DHT22;3007;50.770;0.250;2023-07-20T08:57:30;27.40;99.90
5962;DHT22;3007;50.770;0.250;2023-07-20T09:00:02;27.10;99.90
5962;DHT22;3007;50.770;0.250;2023-07-20T09:02:35;26.70;99.90
5962;DHT22;3007;50.770;0.250;2023-07-20T09:05:07;26.30;99.90
5962;DHT22;3007;50.770;0.250;2023-07-20T09:07:35;25.80;99.90
5962;DHT22;3007;50.770;0.250;2023-07-20T09:10:03;25.70;99.90
5962;DHT22;3007;50.770;0.250;2023-07-20T09:12:31;25.40;99.90
5962;DHT22;3007;50.770;0.250;2023-07-20T09:15:00;25.10;99.90
5962;DHT22;3007;50.770;0.250;2023-07-20T09:17:27;25.10;1.00
5962;DHT22;3007;50.770;0.250;2023-07-20T09:19:54;25.10;99.90
5962;DHT22;3007;50.770;0.250;2023-07-20T09:22:21;25.30;99.90
5962;DHT22;3007;50.770;0.250;2023-07-20T09:24:48;25.50;99.90
5962;DHT22;3007;50.770;0.250;2023-07-20T09:27:15;25.70;99.90
5962;DHT22;3007;50.770;0.250;2023-07-20T09:29:48;25.90;99.90
5962;DHT22;3007;50.770;0.250;2023-07-20T09:32:20;25.80;99.90
5962;DHT22;3007;50.770;0.250;2023-07-20T09:34:49;25.60;99.90
5962;DHT22;3007;50.770;0.250;2023-07-20T09:37:20;25.30;99.90
5962;DHT22;3007;50.770;0.250;2023-07-20T09:39:48;25.10;99.90
5962;DHT22;3007;50.770;0.250;2023-07-20T09:42:15;24.90;99.90
5962;DHT22;3007;50.770;0.250;2023-07-20T09:44:44;24.60;99.90
5962;DHT22;3007;50.770;0.250;2023-07-20T09:47:11;24.40;99.90
5962;DHT22;3007;50.770;0.250;2023-07-20T09:49:40;24.30;99.90
5962;DHT22;3007;50.770;0.250;2023-07-20T09:52:08;24.20;99.90
5962;DHT22;3007;50.770;0.250;2023-07-20T09:54:37;24.10;99.90
5962;DHT22;3007;50.770;0.250;2023-07-20T09:57:07;24.00;99.90
5962;DHT22;3007;50.770;0.250;2023-07-20T09:59:34;23.90;99.90
5962;DHT22;3007;50.770;0.250;2023-07-20T10:02:04;23.80;99.90
5962;DHT22;3007;50.770;0.250;2023-07-20T10:04:34;23.80;99.90
5962;DHT22;3007;50.770;0.250;2023-07-20T10:07:05;23.80;99.90
5962;DHT22;3007;50.770;0.250;2023-07-20T10:09:39;23.80;99.90
5962;DHT22;3007;50.770;0.250;2023-07-20T10:12:08;23.90;99.90
5962;DHT22;3007;50.770;0.250;2023-07-20T10:14:38;24.10;99.90
5962;DHT22;3007;50.770;0.250;2023-07-20T10:17:07;24.40;99.90
5962;DHT22;3007;50.770;0.250;2023-07-20T10:19:42;24.60;99.90
5962;DHT22;3007;50.770;0.250;2023-07-20T10:22:14;24.70;99.90
5962;DHT22;3007;50.770;0.250;2023-07-20T10:24:46;24.90;99.90
5962;DHT22;3007;50.770;0.250;2023-07-20T10:27:13;25.10;99.90
5962;DHT22;3007;50.770;0.250;2023-07-20T10:29:41;25.20;99.90
5962;DHT22;3007;50.770;0.250;2023-07-20T10:32:09;25.30;99.90
5962;DHT22;3007;50.770;0.250;2023-07-20T10:34:36;25.40;99.90
5962;DHT22;3007;50.770;0.250;2023-07-20T10:37:03;25.40;99.90
5962;DHT22;3007;50.770;0.250;2023-07-20T10:39:33;25.40;99.90
5962;DHT22;3007;50.770;0.250;2023-07-20T10:42:01;25.50;99.90
5962;DHT22;3007;50.770;0.250;2023-07-20T10:44:29;25.40;99.90
5962;DHT22;3007;50.770;0.250;2023-07-20T10:47:00;25.40;99.90
5962;DHT22;3007;50.770;0.250;2023-07-20T10:49:27;25.40;99.90
5962;DHT22;3007;50.770;0.250;2023-07-20T10:51:58;25.40;99.90
5962;DHT22;3007;50.770;0.250;2023-07-20T10:54:47;25.30;99.90
5962;DHT22;3007;50.770;0.250;2023-07-20T10:57:24;25.20;99.90
5962;DHT22;3007;50.770;0.250;2023-07-20T10:59:51;25.10;99.90
5962;DHT22;3007;50.770;0.250;2023-07-20T11:02:18;25.10;99.90
5962;DHT22;3007;50.770;0.250;2023-07-20T11:04:47;25.00;99.90
5962;DHT22;3007;50.770;0.250;2023-07-20T11:07:21;24.90;99.90
5962;DHT22;3007;50.770;0.250;2023-07-20T11:10:14;24.90;99.90
5962;DHT22;3007;50.770;0.250;2023-07-20T11:12:41;24.90;99.90
5962;DHT22;3007;50.770;0.250;2023-07-20T11:15:44;25.00;99.90
5962;DHT22;3007;50.770;0.250;2023-07-20T11:18:12;25.00;99.90
5962;DHT22;3007;50.770;0.250;2023-07-20T11:20:39;25.00;99.90
5962;DHT22;3007;50.770;0.250;2023-07-20T11:23:07;24.90;99.90
5962;DHT22;3007;50.770;0.250;2023-07-20T11:25:40;24.90;99.90
5962;DHT22;3007;50.770;0.250;2023-07-20T11:28:07;24.80;99.90
5962;DHT22;3007;50.770;0.250;2023-07-20T11:30:36;24.80;99.90
5962;DHT22;3007;50.770;0.250;2023-07-20T11:33:03;24.70;99.90
5962;DHT22;3007;50.770;0.250;2023-07-20T11:35:30;24.70;99.90
5962;DHT22;3007;50.770;0.250;2023-07-20T11:37:57;24.70;99.90
5962;DHT22;3007;50.770;0.250;2023-07-20T11:40:24;24.70;99.90
5962;DHT22;3007;50.770;0.250;2023-07-20T11:42:53;24.70;99.90
5962;DHT22;3007;50.770;0.250;2023-07-20T11:45:20;24.70;99.90
5962;DHT22;3007;50.770;0.250;2023-07-20T11:47:47;24.70;99.90
5962;DHT22;3007;50.770;0.250;2023-07-20T11:50:13;24.70;99.90
5962;DHT22;3007;50.770;0.250;2023-07-20T11:52:42;24.70;99.90
5962;DHT22;3007;50.770;0.250;2023-07-20T11:55:09;24.70;99.90
5962;DHT22;3007;50.770;0.250;2023-07-20T11:57:36;24.60;99.90
5962;DHT22;3007;50.770;0.250;2023-07-20T12:00:07;24.50;99.90
5962;DHT22;3007;50.770;0.250;2023-07-20T12:02:37;24.40;99.90
5962;DHT22;3007;50.770;0.250;2023-07-20T12:05:05;24.30;99.90
5962;DHT22;3007;50.770;0.250;2023-07-20T12:07:36;24.20;99.90
5962;DHT22;3007;50.770;0.250;2023-07-20T12:10:06;24.20;99.90
5962;DHT22;3007;50.770;0.250;2023-07-20T12:12:33;24.10;99.90
5962;DHT22;3007;50.770;0.250;2023-07-20T12:15:15;24.00;1.00
5962;DHT22;3007;50.770;0.250;2023-07-20T12:17:43;23.90;1.00
5962;DHT22;3007;50.770;0.250;2023-07-20T12:20:11;23.80;1.00
5962;DHT22;3007;50.770;0.250;2023-07-20T12:22:39;23.70;1.00
5962;DHT22;3007;50.770;0.250;2023-07-20T12:25:06;23.60;1.00
5962;DHT22;3007;50.770;0.250;2023-07-20T12:27:35;23.60;1.00
5962;DHT22;3007;50.770;0.250;2023-07-20T12:30:04;23.60;1.00
5962;DHT22;3007;50.770;0.250;2023-07-20T12:32:33;23.60;1.00
5962;DHT22;3007;50.770;0.250;2023-07-20T12:34:59;23.60;1.00
5962;DHT22;3007;50.770;0.250;2023-07-20T12:37:26;23.50;1.00
5962;DHT22;3007;50.770;0.250;2023-07-20T12:39:53;23.50;1.00
5962;DHT22;3007;50.770;0.250;2023-07-20T12:42:20;23.50;1.00
5962;DHT22;3007;50.770;0.250;2023-07-20T12:44:49;23.50;1.00
5962;DHT22;3007;50.770;0.250;2023-07-20T12:47:16;23.50;1.00
5962;DHT22;3007;50.770;0.250;2023-07-20T12:49:45;23.40;1.00
5962;DHT22;3007;50.770;0.250;2023-07-20T12:52:12;23.40;1.00
5962;DHT22;3007;50.770;0.250;2023-07-20T12:54:39;23.30;1.00
5962;DHT22;3007;50.770;0.250;2023-07-20T12:57:06;23.30;1.00
5962;DHT22;3007;50.770;0.250;2023-07-20T12:59:33;23.10;1.00
5962;DHT22;3007;50.770;0.250;2023-07-20T13:02:00;23.10;1.00
5962;DHT22;3007;50.770;0.250;2023-07-20T13:04:27;23.00;1.00
5962;DHT22;3007;50.770;0.250;2023-07-20T13:06:55;23.00;1.00
5962;DHT22;3007;50.770;0.250;2023-07-20T13:09:24;23.00;1.00
5962;DHT22;3007;50.770;0.250;2023-07-20T13:11:50;23.10;1.00
5962;DHT22;3007;50.770;0.250;2023-07-20T13:14:18;23.00;1.00
5962;DHT22;3007;50.770;0.250;2023-07-20T13:16:44;23.00;1.00
5962;DHT22;3007;50.770;0.250;2023-07-20T13:19:11;23.10;1.00
5962;DHT22;3007;50.770;0.250;2023-07-20T13:21:38;23.10;1.00
5962;DHT22;3007;50.770;0.250;2023-07-20T13:24:08;23.10;1.00
5962;DHT22;3007;50.770;0.250;2023-07-20T13:26:34;23.00;1.00
5962;DHT22;3007;50.770;0.250;2023-07-20T13:29:01;23.00;1.00
5962;DHT22;3007;50.770;0.250;2023-07-20T13:31:28;23.00;1.00
5962;DHT22;3007;50.770;0.250;2023-07-20T13:33:55;23.00;1.00
5962;DHT22;3007;50.770;0.250;2023-07-20T13:36:22;23.00;1.00
5962;DHT22;3007;50.770;0.250;2023-07-20T13:38:49;22.90;1.00
5962;DHT22;3007;50.770;0.250;2023-07-20T13:41:17;22.90;1.00
5962;DHT22;3007;50.770;0.250;2023-07-20T13:43:44;22.90;1.00
5962;DHT22;3007;50.770;0.250;2023-07-20T13:46:11;22.80;1.00
5962;DHT22;3007;50.770;0.250;2023-07-20T13:48:38;22.80;1.00
5962;DHT22;3007;50.770;0.250;2023-07-20T13:51:06;22.70;1.00
5962;DHT22;3007;50.770;0.250;2023-07-20T13:53:32;22.80;1.00
5962;DHT22;3007;50.770;0.250;2023-07-20T13:55:59;22.80;1.00
5962;DHT22;3007;50.770;0.250;2023-07-20T13:58:27;22.80;1.00
5962;DHT22;3007;50.770;0.250;2023-07-20T14:00:54;22.80;1.00
5962;DHT22;3007;50.770;0.250;2023-07-20T14:03:21;22.90;1.00
5962;DHT22;3007;50.770;0.250;2023-07-20T14:05:48;22.80;35.30
5962;DHT22;3007;50.770;0.250;2023-07-20T14:08:16;22.70;67.90
5962;DHT22;3007;50.770;0.250;2023-07-20T14:10:43;22.70;1.00
5962;DHT22;3007;50.770;0.250;2023-07-20T14:13:10;22.70;64.30
5962;DHT22;3007;50.770;0.250;2023-07-20T14:15:39;22.70;1.00
5962;DHT22;3007;50.770;0.250;2023-07-20T14:18:06;22.70;12.20
5962;DHT22;3007;50.770;0.250;2023-07-20T14:20:32;22.60;1.10
5962;DHT22;3007;50.770;0.250;2023-07-20T14:23:00;22.60;10.40
5962;DHT22;3007;50.770;0.250;2023-07-20T14:25:27;22.50;51.20
5962;DHT22;3007;50.770;0.250;2023-07-20T14:27:54;22.60;56.40
5962;DHT22;3007;50.770;0.250;2023-07-20T14:30:21;22.50;80.90
5962;DHT22;3007;50.770;0.250;2023-07-20T14:32:49;22.50;70.10
5962;DHT22;3007;50.770;0.250;2023-07-20T14:35:16;22.40;61.70
5962;DHT22;3007;50.770;0.250;2023-07-20T14:37:43;22.40;99.90
5962;DHT22;3007;50.770;0.250;2023-07-20T14:40:12;22.40;99.90
5962;DHT22;3007;50.770;0.250;2023-07-20T14:42:39;22.40;99.90
5962;DHT22;3007;50.770;0.250;2023-07-20T14:45:07;22.30;99.90
5962;DHT22;3007;50.770;0.250;2023-07-20T14:47:34;22.30;99.40
5962;DHT22;3007;50.770;0.250;2023-07-20T14:50:03;22.30;87.30
5962;DHT22;3007;50.770;0.250;2023-07-20T14:52:30;22.20;99.90
5962;DHT22;3007;50.770;0.250;2023-07-20T14:54:57;22.20;99.90
5962;DHT22;3007;50.770;0.250;2023-07-20T14:57:24;22.10;99.90
5962;DHT22;3007;50.770;0.250;2023-07-20T14:59:50;22.00;99.90
5962;DHT22;3007;50.770;0.250;2023-07-20T15:02:18;22.00;99.90
5962;DHT22;3007;50.770;0.250;2023-07-20T15:04:48;22.00;99.90
5962;DHT22;3007;50.770;0.250;2023-07-20T15:07:18;22.00;99.90
5962;DHT22;3007;50.770;0.250;2023-07-20T15:09:45;22.00;99.90
5962;DHT22;3007;50.770;0.250;2023-07-20T15:12:12;21.90;99.90
5962;DHT22;3007;50.770;0.250;2023-07-20T15:14:40;21.90;99.90
5962;DHT22;3007;50.770;0.250;2023-07-20T15:17:07;21.90;99.90
5962;DHT22;3007;50.770;0.250;2023-07-20T15:19:34;22.00;99.90
5962;DHT22;3007;50.770;0.250;2023-07-20T15:22:01;21.90;99.90
5962;DHT22;3007;50.770;0.250;2023-07-20T15:24:30;21.90;99.90
5962;DHT22;3007;50.770;0.250;2023-07-20T15:26:57;21.90;99.90
5962;DHT22;3007;50.770;0.250;2023-07-20T15:29:24;21.90;99.90
5962;DHT22;3007;50.770;0.250;2023-07-20T15:31:51;22.00;99.90
5962;DHT22;3007;50.770;0.250;2023-07-20T15:34:18;22.00;99.90
5962;DHT22;3007;50.770;0.250;2023-07-20T15:36:45;22.00;99.90
5962;DHT22;3007;50.770;0.250;2023-07-20T15:39:12;22.00;99.90
5962;DHT22;3007;50.770;0.250;2023-07-20T15:41:40;22.00;99.90
5962;DHT22;3007;50.770;0.250;2023-07-20T15:44:07;22.00;99.90
5962;DHT22;3007;50.770;0.250;2023-07-20T15:46:47;22.00;99.90
5962;DHT22;3007;50.770;0.250;2023-07-20T15:49:14;22.00;99.90
5962;DHT22;3007;50.770;0.250;2023-07-20T15:51:41;22.00;99.90
5962;DHT22;3007;50.770;0.250;2023-07-20T15:54:09;21.90;99.90
5962;DHT22;3007;50.770;0.250;2023-07-20T15:56:37;21.90;99.90
5962;DHT22;3007;50.770;0.250;2023-07-20T15:59:07;21.90;99.90
5962;DHT22;3007;50.770;0.250;2023-07-20T16:01:34;21.90;99.90
5962;DHT22;3007;50.770;0.250;2023-07-20T16:04:01;21.90;99.90
5962;DHT22;3007;50.770;0.250;2023-07-20T16:06:28;21.90;99.90
5962;DHT22;3007;50.770;0.250;2023-07-20T16:08:55;21.80;99.90
5962;DHT22;3007;50.770;0.250;2023-07-20T16:11:22;21.80;99.90